Airfield :
LOGIN :

Register | Disclaimer

   EN    FR    IT 

 










Legend :    VFR   Marginal VFR   IFR   Intensive IFR   Very Intensive IFR
Visi :
Ceiling :
>= 8 km
>= 3000ft
5 to 8 km
1000 to 3000 ft
1500m to 5 km
500 to 1000 ft
800 to 1500m
200 to 500 ft
< 800m
< 200 ft
Symbols :   Thunderstorms  Fog  Heavy snow  Heavy precipitations  Wind > 20 kt
SIGMETs :     Misc.  Thunderstorms  Icing  Turbulence  Mountain Waves  Volcanic Ashes






- Airport Elevation : 370 ft


EBBE - Beauvechain AB

CURRENT METAR :
  • 280555Z 21005KT 6000 FEW200 01/00 Q1021 WHT WHT TEMPO GRN

EXPIRED METARs :
  • 280550Z AUTO 22005KT 5000 NCD 01/00 Q1021 WHT
  • 280525Z AUTO 19006KT 5000 NCD 01/00 Q1021 WHT
  • 280455Z AUTO 19005KT 5000 NCD 01/00 Q1020 WHT
  • 280425Z AUTO 20005KT 5000 NCD 01/00 Q1020 WHT
  • 280403Z AUTO 20005KT 4700 BR NCD 01/01 Q1020 GRN
  • 280351Z AUTO 21005KT 4700 BR NCD 01/01 Q1020 GRN
  • 280339Z AUTO 20005KT 3600 BR NCD 01/00 Q1020 YLO
  • 280325Z AUTO 21004KT 3700 BR NCD 01/00 Q1020 GRN
  • 280255Z AUTO VRB02KT 4400 BR NCD 02/01 Q1020 GRN
  • 280225Z AUTO 21004KT 2700 BR NCD 01/00 Q1020 YLO
  • 280155Z AUTO 18004KT 3100 BR FEW070/// 01/01 Q1020 YLO
  • 280133Z AUTO 19005KT 3400 BR SCT070/// 02/01 Q1020 YLO

TAF TAF EBBE
Valid from the 27 at 19:00 until the 28 at 07:00 UTC


271541Z 2719/2807 34004KT 8000 SCT150
TEMPO 2722/2807 VRB03KT 4000 BR SCT060
PROB30
TEMPO 2803/2807 2000 BR SCT002
BECMG 2804/2806 21004KT



MET'MAP, your aeronautical weather chart ! - Copyright ORBIFLY December 2007 - Disclaimer

ORBIFLY MET'MAP TEAM :

Programming & Development : Alexandra Zaïnal
Original concept : Baudouin d'Aumeries
Technical & hardware support : Manuel Goepfert
Assistance : Marc-Olivier Méhu




SOURCES & CREDITS :

   NOAA